Time;durP1;ratioP1;P1;durP2;ratioP2;P2;SDS_P1;SDS_P2;PMS_P1;PMS_P2;Temp;Humidity;BMP_temperature;BMP_pressure;BME280_temperature;BME280_humidity;BME280_pressure;Samples;Min_cycle;Max_cycle;Signal;HPM_P1;HPM_P2
2021/12/05 00:17:09;;;;;;;1.38;0.20;;;;;;;7.88;83.29;99457.94;7385687;19;20137;-68
2021/12/05 00:22:19;;;;;;;1.70;0.20;;;;;;;7.79;83.60;99445.06;7388439;19;20019;-69
2021/12/05 00:24:56;;;;;;;1.33;0.20;;;;;;;7.77;84.54;99434.78;7390078;19;20019;-67
2021/12/05 00:27:33;;;;;;;38.75;3.30;;;;;;;7.79;85.40;99435.41;7388516;19;20010;-69
2021/12/05 01:07:25;;;;;;;5.82;0.40;;;;;;;7.90;86.35;99398.38;7388695;19;20807;-68
2021/12/05 01:17:26;;;;;;;5.97;0.45;;;;;;;7.87;86.83;99413.63;7390729;19;20019;-69
2021/12/05 01:19:57;;;;;;;3.65;1.08;;;;;;;7.93;87.01;99413.75;7386827;19;20014;-68
2021/12/05 01:22:32;;;;;;;3.53;0.98;;;;;;;7.96;86.81;99423.06;7384535;19;20014;-70
2021/12/05 01:25:19;;;;;;;1.45;0.40;;;;;;;7.98;86.99;99432.38;7388651;19;20267;-69
2021/12/05 01:28:00;;;;;;;6.38;0.47;;;;;;;8.02;87.15;99419.78;7388122;19;20534;-67
2021/12/05 01:33:07;;;;;;;3.63;0.30;;;;;;;8.02;86.63;99423.22;7388952;19;20038;-69
2021/12/05 02:16:44;;;;;;;4.60;1.45;;;;;;;7.97;85.24;99466.63;7396788;19;20011;-71
2021/12/05 02:35:56;;;;;;;1.50;0.10;;;;;;;7.89;85.00;99492.81;7393246;19;20014;-71
2021/12/05 02:41:19;;;;;;;1.30;0.08;;;;;;;7.90;85.41;99497.88;7396208;19;20022;-69
2021/12/05 02:46:23;;;;;;;0.35;0.10;;;;;;;7.90;83.84;99495.28;7393608;19;20091;-70
2021/12/05 02:48:50;;;;;;;0.30;0.10;;;;;;;7.88;83.01;99491.16;7393642;19;20026;-68
2021/12/05 02:51:22;;;;;;;0.90;0.20;;;;;;;7.92;83.83;99501.16;7395103;19;20011;-68
2021/12/05 02:54:02;;;;;;;0.25;0.10;;;;;;;7.98;84.54;99505.72;7393458;19;20021;-67
2021/12/05 02:56:32;;;;;;;1.70;0.52;;;;;;;7.99;84.44;99506.53;7395004;19;20318;-69
2021/12/05 02:59:06;;;;;;;0.85;0.20;;;;;;;7.98;83.27;99500.47;7393804;19;20782;-69
2021/12/05 03:01:42;;;;;;;1.63;0.40;;;;;;;8.00;83.34;99495.88;7390494;19;20027;-70
2021/12/05 03:04:10;;;;;;;3.45;0.30;;;;;;;8.01;83.20;99499.31;7394650;19;20015;-67
2021/12/05 03:06:49;;;;;;;2.47;0.80;;;;;;;8.00;83.38;99502.94;7393921;19;20018;-67
2021/12/05 03:09:18;;;;;;;3.10;0.50;;;;;;;8.01;83.35;99500.16;7390992;19;20027;-69
2021/12/05 03:11:46;;;;;;;0.60;0.20;;;;;;;8.01;82.79;99499.31;7392071;19;20014;-69
2021/12/05 03:14:14;;;;;;;0.17;0.10;;;;;;;7.95;81.15;99490.34;7395450;19;19999;-68
2021/12/05 03:16:42;;;;;;;0.30;0.10;;;;;;;7.97;81.46;99508.50;7394441;19;20037;-70
2021/12/05 03:19:11;;;;;;;0.60;0.20;;;;;;;7.95;79.43;99503.44;7393552;19;20626;-67
2021/12/05 03:21:39;;;;;;;0.35;0.10;;;;;;;7.94;80.21;99504.41;7391112;19;20011;-70
2021/12/05 03:24:10;;;;;;;1.75;0.43;;;;;;;7.93;80.04;99497.53;7389800;19;20456;-69
2021/12/05 03:26:40;;;;;;;0.28;0.10;;;;;;;7.94;80.75;99503.59;7394085;19;20038;-71
2021/12/05 03:29:09;;;;;;;0.57;0.30;;;;;;;7.96;81.69;99507.69;7391759;19;20032;-70
2021/12/05 03:31:38;;;;;;;2.33;0.10;;;;;;;7.94;80.98;99512.28;7389179;19;20023;-70
2021/12/05 03:34:07;;;;;;;0.52;0.10;;;;;;;7.96;81.10;99527.81;7392877;19;20475;-69
2021/12/05 03:36:36;;;;;;;1.00;0.30;;;;;;;7.94;80.34;99509.66;7393366;19;20023;-70
2021/12/05 03:39:05;;;;;;;0.82;0.10;;;;;;;7.95;80.94;99531.41;7394035;19;20017;-69
2021/12/05 03:41:33;;;;;;;0.30;0.05;;;;;;;7.93;80.40;99523.72;7393403;19;20014;-69
2021/12/05 03:44:04;;;;;;;0.75;0.30;;;;;;;7.94;79.64;99525.38;7392142;19;20014;-69
2021/12/05 03:46:32;;;;;;;2.05;0.10;;;;;;;7.93;79.44;99531.59;7393571;19;20400;-70
2021/12/05 03:49:03;;;;;;;0.82;0.10;;;;;;;7.91;79.15;99528.34;7390612;19;20009;-70
2021/12/05 03:51:32;;;;;;;1.00;0.38;;;;;;;7.89;79.07;99534.69;7391225;19;20010;-67
2021/12/05 03:53:59;;;;;;;9.45;2.25;;;;;;;7.88;79.63;99533.88;7391665;19;20027;-69
2021/12/05 03:56:26;;;;;;;1.88;0.20;;;;;;;7.91;79.61;99536.19;7393875;19;20010;-68
2021/12/05 03:58:54;;;;;;;1.17;0.20;;;;;;;7.89;79.67;99540.75;7392923;19;20018;-67
2021/12/05 04:01:24;;;;;;;0.30;0.03;;;;;;;7.91;80.10;99548.47;7392347;19;20025;-69
2021/12/05 04:03:54;;;;;;;0.28;0.20;;;;;;;7.93;79.23;99536.81;7391054;19;20013;-67
2021/12/05 04:06:24;;;;;;;0.10;0.00;;;;;;;7.92;79.00;99529.16;7389794;19;20007;-68
2021/12/05 04:08:52;;;;;;;0.20;0.10;;;;;;;7.92;78.97;99534.38;7394359;19;20107;-69
2021/12/05 04:11:27;;;;;;;0.70;0.30;;;;;;;7.91;79.65;99528.34;7394523;19;20006;-70
2021/12/05 04:13:57;;;;;;;0.65;0.10;;;;;;;7.92;79.95;99540.44;7388374;19;20029;-71
2021/12/05 04:16:27;;;;;;;0.70;0.10;;;;;;;7.88;78.74;99540.91;7392151;19;20027;-67
2021/12/05 04:18:55;;;;;;;0.40;0.20;;;;;;;7.86;79.39;99548.97;7390740;19;20010;-68
2021/12/05 04:21:23;;;;;;;1.38;0.08;;;;;;;7.88;79.83;99556.63;7388246;19;20018;-67
2021/12/05 04:23:50;;;;;;;0.75;0.20;;;;;;;7.85;78.70;99557.78;7393117;19;20014;-68
2021/12/05 04:26:18;;;;;;;0.17;0.10;;;;;;;7.87;78.74;99555.84;7388158;19;20015;-71
2021/12/05 04:28:46;;;;;;;0.52;0.10;;;;;;;7.87;78.66;99549.78;7392311;19;20011;-70
2021/12/05 04:31:14;;;;;;;0.32;0.10;;;;;;;7.83;78.20;99551.91;7389565;19;20418;-68
2021/12/05 04:33:42;;;;;;;0.73;0.10;;;;;;;7.83;79.07;99553.69;7388842;19;20018;-71
2021/12/05 04:36:09;;;;;;;0.45;0.20;;;;;;;7.81;77.52;99566.97;7390581;19;20045;-70
2021/12/05 04:38:36;;;;;;;0.55;0.10;;;;;;;7.82;79.66;99562.56;7389263;19;20139;-68
2021/12/05 04:41:04;;;;;;;0.40;0.10;;;;;;;7.77;78.86;99565.69;7393945;19;20014;-71
2021/12/05 04:43:36;;;;;;;0.20;0.15;;;;;;;7.74;78.85;99590.38;7394659;19;20019;-71
2021/12/05 04:46:10;;;;;;;0.20;0.10;;;;;;;7.74;79.13;99585.13;7388913;19;20014;-68
2021/12/05 04:48:38;;;;;;;0.68;0.30;;;;;;;7.72;78.28;99586.28;7390976;19;20090;-70
2021/12/05 04:51:06;;;;;;;1.52;0.13;;;;;;;7.72;78.80;99579.25;7388938;19;20077;-68
2021/12/05 04:53:34;;;;;;;0.65;0.10;;;;;;;7.74;78.83;99584.31;7390877;19;20048;-68
2021/12/05 04:56:03;;;;;;;0.70;0.28;;;;;;;7.75;79.09;99580.72;7390057;19;20010;-70
2021/12/05 04:58:30;;;;;;;0.52;0.17;;;;;;;7.74;78.82;99586.94;7385445;19;20411;-70
2021/12/05 05:00:59;;;;;;;0.30;0.10;;;;;;;7.72;78.31;99587.09;7385715;19;20130;-69
2021/12/05 05:03:27;;;;;;;0.50;0.30;;;;;;;7.71;78.97;99589.91;7385083;19;20015;-70
2021/12/05 05:06:04;;;;;;;1.85;0.20;;;;;;;7.72;79.30;99591.50;7388947;19;20006;-68
2021/12/05 05:08:32;;;;;;;1.45;0.10;;;;;;;7.72;78.89;99604.59;7385512;19;20014;-70
2021/12/05 05:11:03;;;;;;;1.00;0.35;;;;;;;7.72;79.12;99600.19;7388253;19;20031;-69
2021/12/05 05:13:32;;;;;;;0.63;0.10;;;;;;;7.71;79.44;99608.22;7391345;19;20345;-67
2021/12/05 05:16:01;;;;;;;0.85;0.40;;;;;;;7.72;79.69;99615.88;7387419;19;20024;-69
2021/12/05 05:18:37;;;;;;;1.05;0.20;;;;;;;7.74;79.39;99608.69;7386969;19;20022;-68
2021/12/05 05:23:46;;;;;;;0.20;0.10;;;;;;;7.78;78.86;99613.59;7384843;19;20026;-66
2021/12/05 05:44:05;;;;;;;0.20;0.10;;;;;;;7.83;77.53;99625.22;7386052;19;20089;-70
2021/12/05 05:51:33;;;;;;;1.35;0.10;;;;;;;7.84;78.68;99639.13;7392533;19;20015;-71
2021/12/05 05:54:00;;;;;;;0.35;0.10;;;;;;;7.81;78.30;99650.75;7392392;19;20003;-68
2021/12/05 05:56:31;;;;;;;1.60;0.30;;;;;;;7.81;77.87;99655.19;7395592;19;20031;-68
2021/12/05 06:03:59;;;;;;;0.95;0.43;;;;;;;7.70;78.63;99659.75;7394074;19;20521;-71
2021/12/05 06:06:27;;;;;;;0.95;0.20;;;;;;;7.70;79.07;99651.91;7393641;19;20124;-70
2021/12/05 06:08:54;;;;;;;0.20;0.10;;;;;;;7.70;78.15;99666.78;7394611;19;20011;-68
2021/12/05 06:11:22;;;;;;;0.40;0.13;;;;;;;7.69;79.43;99671.19;7391048;19;20017;-68
2021/12/05 06:13:49;;;;;;;0.60;0.10;;;;;;;7.68;79.21;99681.81;7393286;19;20605;-68
2021/12/05 06:16:17;;;;;;;6.15;0.57;;;;;;;7.68;79.70;99682.66;7393202;19;20115;-67
2021/12/05 06:18:46;;;;;;;0.38;0.17;;;;;;;7.67;80.39;99685.41;7393632;19;20041;-70
2021/12/05 06:21:15;;;;;;;1.85;0.10;;;;;;;7.66;79.53;99684.63;7395980;19;20006;-70
2021/12/05 06:23:44;;;;;;;1.13;0.40;;;;;;;7.68;79.96;99690.50;7392031;19;20546;-72
2021/12/05 06:26:22;;;;;;;0.10;0.10;;;;;;;7.69;79.70;99693.94;7392877;19;20659;-72
2021/12/05 06:31:33;;;;;;;1.05;0.15;;;;;;;7.74;81.10;99691.66;7392440;19;20078;-71
2021/12/05 06:46:34;;;;;;;1.70;0.52;;;;;;;7.68;81.75;99721.09;7392234;19;20053;-72
2021/12/05 06:49:01;;;;;;;0.68;0.22;;;;;;;7.72;83.27;99715.38;7389503;19;20251;-68
2021/12/05 06:51:30;;;;;;;0.43;0.30;;;;;;;7.71;82.92;99731.25;7389946;19;20006;-68
2021/12/05 06:53:58;;;;;;;1.45;0.20;;;;;;;7.71;81.51;99728.63;7392960;19;20025;-68
2021/12/05 06:56:25;;;;;;;0.47;0.20;;;;;;;7.68;82.16;99723.72;7391732;19;20015;-68
2021/12/05 06:58:53;;;;;;;0.80;0.40;;;;;;;7.66;82.74;99733.53;7391266;19;20006;-69
2021/12/05 07:01:22;;;;;;;0.90;0.30;;;;;;;7.66;82.41;99752.69;7391016;19;20076;-69
2021/12/05 07:03:50;;;;;;;1.27;0.30;;;;;;;7.65;81.67;99752.84;7390079;19;20432;-71
2021/12/05 07:08:46;;;;;;;0.47;0.20;;;;;;;7.61;82.67;99762.81;7388431;19;20011;-70
2021/12/05 07:19:06;;;;;;;0.43;0.20;;;;;;;7.60;82.82;99763.78;7387396;19;20014;-70
2021/12/05 07:44:11;;;;;;;2.03;0.30;;;;;;;7.47;83.27;99815.75;7389886;19;20094;-71
2021/12/05 07:46:38;;;;;;;0.63;0.20;;;;;;;7.48;83.60;99827.03;7389754;19;20010;-67
2021/12/05 07:49:09;;;;;;;0.60;0.20;;;;;;;7.44;83.33;99823.09;7387247;19;20069;-68
2021/12/05 07:51:41;;;;;;;0.52;0.20;;;;;;;7.45;83.46;99835.22;7390446;19;20015;-69
2021/12/05 07:56:42;;;;;;;0.68;0.30;;;;;;;7.42;83.66;99828.50;7390794;19;20007;-67
2021/12/05 08:16:52;;;;;;;0.55;0.20;;;;;;;7.50;84.17;99861.75;7393157;19;20031;-72
2021/12/05 08:19:22;;;;;;;1.10;0.30;;;;;;;7.51;84.41;99872.06;7389589;19;20018;-70
2021/12/05 08:21:55;;;;;;;1.50;0.20;;;;;;;7.52;84.15;99892.00;7387317;19;20018;-71
2021/12/05 08:24:24;;;;;;;0.77;0.22;;;;;;;7.47;84.38;99886.41;7388071;19;20019;-67
2021/12/05 08:26:53;;;;;;;0.32;0.13;;;;;;;7.47;84.00;99896.06;7388147;19;20025;-68
2021/12/05 08:29:32;;;;;;;2.33;0.40;;;;;;;7.49;84.52;99905.41;7389615;19;20090;-69
2021/12/05 08:32:15;;;;;;;2.88;0.40;;;;;;;7.51;84.95;99900.84;7388603;19;20034;-68
2021/12/05 10:11:03;;;;;;;1.45;0.40;;;;;;;8.24;81.34;100102.03;7395765;19;20014;-68
2021/12/05 10:37:13;;;;;;;3.03;0.88;;;;;;;8.30;82.19;100133.72;7395411;19;20502;-69
2021/12/05 10:39:41;;;;;;;0.88;0.30;;;;;;;8.29;81.11;100136.44;7395550;19;20010;-70
2021/12/05 10:44:53;;;;;;;1.73;0.65;;;;;;;8.33;81.83;100146.47;7396041;19;20031;-70
2021/12/05 10:47:38;;;;;;;3.50;0.70;;;;;;;8.37;82.29;100142.59;7396793;19;20010;-67
2021/12/05 10:50:35;;;;;;;2.13;0.70;;;;;;;8.40;82.16;100141.44;7395643;19;20011;-67
2021/12/05 10:53:27;;;;;;;1.13;0.30;;;;;;;8.44;82.33;100146.22;7394096;19;20011;-69
2021/12/05 10:56:00;;;;;;;2.90;0.47;;;;;;;8.49;83.09;100145.75;7389756;19;20429;-69
2021/12/05 10:58:56;;;;;;;1.42;0.40;;;;;;;8.52;82.38;100143.66;7393631;19;20035;-70
2021/12/05 11:01:28;;;;;;;1.35;0.47;;;;;;;8.54;82.57;100160.03;7393069;19;20014;-69
2021/12/05 11:04:02;;;;;;;0.65;0.38;;;;;;;8.56;82.22;100147.59;7372182;19;20018;-71
2021/12/05 11:06:41;;;;;;;1.95;0.32;;;;;;;8.57;81.00;100157.13;7393083;19;20018;-70
2021/12/05 11:09:13;;;;;;;0.82;0.40;;;;;;;8.60;81.62;100153.34;7395903;19;20316;-70
2021/12/05 11:11:46;;;;;;;0.75;0.40;;;;;;;8.62;81.55;100161.06;7393802;19;20010;-68
2021/12/05 11:14:17;;;;;;;2.20;0.30;;;;;;;8.61;81.15;100170.72;7390673;19;20094;-71
2021/12/05 11:17:00;;;;;;;2.35;0.50;;;;;;;8.59;81.19;100168.25;7394104;19;20190;-68
2021/12/05 11:19:48;;;;;;;3.55;0.40;;;;;;;8.56;80.51;100165.97;7390709;19;20014;-70
2021/12/05 11:22:21;;;;;;;2.72;0.35;;;;;;;8.55;80.53;100171.34;7394131;19;20034;-70
2021/12/05 11:25:00;;;;;;;1.25;0.38;;;;;;;8.57;80.79;100175.47;7393988;19;20341;-68
2021/12/05 11:27:41;;;;;;;1.60;0.30;;;;;;;8.58;80.59;100184.16;7390274;19;20467;-69
2021/12/05 11:30:20;;;;;;;1.10;0.32;;;;;;;8.56;80.39;100175.63;7392218;19;20015;-68
2021/12/05 11:32:50;;;;;;;2.28;0.40;;;;;;;8.55;81.09;100187.09;7390606;19;20536;-68
2021/12/05 11:35:28;;;;;;;3.05;0.40;;;;;;;8.56;81.47;100189.56;7374191;19;20018;-70
2021/12/05 11:38:01;;;;;;;2.35;0.52;;;;;;;8.59;82.07;100189.22;7390373;19;20134;-67
2021/12/05 11:40:37;;;;;;;;;;;;;;;8.63;83.44;100191.56;7394381;19;20023;-69
2021/12/05 11:43:04;;;;;;;2.28;0.90;;;;;;;8.62;83.03;100198.59;7391892;19;19911;-70
2021/12/05 11:45:54;;;;;;;1.25;0.50;;;;;;;8.63;82.55;100202.88;7392394;19;20013;-72
2021/12/05 11:48:43;;;;;;;3.47;0.50;;;;;;;8.63;82.85;100205.50;7392371;19;20029;-69
2021/12/05 11:51:23;;;;;;;3.22;0.50;;;;;;;8.64;82.62;100204.50;7388547;19;20025;-68
2021/12/05 11:54:08;;;;;;;4.15;1.02;;;;;;;8.65;83.10;100208.78;7390545;19;20476;-70
2021/12/05 11:56:34;;;;;;;1.48;0.60;;;;;;;8.65;83.43;100200.91;7390523;19;20018;-67
2021/12/05 11:59:10;;;;;;;4.93;1.23;;;;;;;8.67;83.09;100204.19;7389842;19;20018;-69
2021/12/05 12:01:43;;;;;;;1.98;0.40;;;;;;;8.69;83.73;100215.34;7390976;19;20014;-67
2021/12/05 12:04:13;;;;;;;1.75;0.40;;;;;;;8.72;83.49;100214.22;7391788;19;20795;-69
2021/12/05 12:06:42;;;;;;;1.90;0.40;;;;;;;8.71;83.19;100221.25;7371649;19;20138;-70
2021/12/05 12:09:13;;;;;;;3.20;0.43;;;;;;;8.69;83.17;100228.44;7387979;19;20011;-69
2021/12/05 12:11:43;;;;;;;4.43;0.63;;;;;;;8.67;84.03;100217.31;7389000;19;20621;-71
2021/12/05 12:14:10;;;;;;;1.95;0.57;;;;;;;8.67;84.22;100216.50;7390632;19;20031;-69
2021/12/05 12:16:46;;;;;;;12.80;1.92;;;;;;;8.67;84.99;100221.72;7391225;19;20276;-67
2021/12/05 12:19:13;;;;;;;19.77;2.55;;;;;;;8.64;84.95;100224.66;7392330;19;20017;-67
2021/12/05 12:21:42;;;;;;;3.90;0.70;;;;;;;8.63;84.98;100236.97;7387960;19;20019;-67
2021/12/05 12:24:10;;;;;;;6.60;1.20;;;;;;;8.60;84.95;100232.00;7392928;19;20017;-72
2021/12/05 12:26:38;;;;;;;2.65;0.73;;;;;;;8.59;85.38;100235.59;7390414;19;20030;-69
2021/12/05 12:29:05;;;;;;;3.22;0.60;;;;;;;8.58;86.05;100237.41;7391921;19;20037;-72
2021/12/05 12:31:36;;;;;;;4.50;0.80;;;;;;;8.58;86.42;100234.78;7390594;19;20015;-69
2021/12/05 12:34:06;;;;;;;2.30;0.60;;;;;;;8.54;86.28;100235.25;7390723;19;20460;-72
2021/12/05 12:36:35;;;;;;;2.55;0.88;;;;;;;8.54;86.62;100233.44;7392900;19;20043;-72
2021/12/05 12:39:23;;;;;;;4.68;1.23;;;;;;;8.52;86.70;100229.34;7393187;19;20025;-70
2021/12/05 12:42:13;;;;;;;2.78;0.93;;;;;;;8.47;86.05;100236.84;7389293;19;20011;-71
2021/12/05 12:45:09;;;;;;;3.13;1.80;;;;;;;8.46;87.17;100246.50;7389626;19;20022;-69
2021/12/05 12:47:39;;;;;;;3.50;0.73;;;;;;;8.43;86.76;100233.69;7389327;19;20007;-69
2021/12/05 12:50:19;;;;;;;1.40;0.70;;;;;;;8.42;86.76;100246.97;7387231;19;20010;-69
2021/12/05 12:53:05;;;;;;;3.33;1.08;;;;;;;8.42;87.10;100253.03;7386635;19;20026;-69
2021/12/05 12:55:35;;;;;;;3.10;0.68;;;;;;;8.41;87.33;100246.16;7387569;19;20337;-71
2021/12/05 12:58:13;;;;;;;4.15;0.80;;;;;;;8.49;87.93;100258.47;7389709;19;20924;-68
2021/12/05 13:00:46;;;;;;;3.63;0.98;;;;;;;8.56;91.35;100260.34;7386388;19;20046;-68
2021/12/05 13:03:28;;;;;;;5.35;0.98;;;;;;;8.70;92.22;100260.75;7390201;19;20007;-70
2021/12/05 13:11:21;;;;;;;2.58;0.90;;;;;;;8.90;88.39;100270.88;7391674;19;20014;-72
2021/12/05 13:13:57;;;;;;;3.05;0.90;;;;;;;8.90;87.67;100272.66;7386073;19;20019;-73
2021/12/05 13:16:31;;;;;;;2.25;0.88;;;;;;;8.84;86.90;100278.53;7386998;19;20507;-68
2021/12/05 13:19:08;;;;;;;3.80;1.02;;;;;;;8.80;86.24;100275.41;7386011;19;20034;-69
2021/12/05 13:21:42;;;;;;;2.20;0.95;;;;;;;8.80;86.69;100288.50;7386168;19;20725;-70
2021/12/05 13:24:15;;;;;;;3.15;0.70;;;;;;;8.77;86.88;100286.22;7388723;19;20027;-70
2021/12/05 13:26:43;;;;;;;23.50;2.25;;;;;;;8.71;86.56;100291.25;7390758;19;20018;-70
2021/12/05 13:29:16;;;;;;;3.38;1.17;;;;;;;8.70;87.83;100287.78;7391820;19;20070;-68
2021/12/05 13:31:54;;;;;;;4.13;1.13;;;;;;;8.68;87.77;100287.16;7387244;19;20002;-71
2021/12/05 13:34:27;;;;;;;6.50;1.73;;;;;;;8.68;87.57;100297.63;7387070;19;20015;-69
2021/12/05 13:37:06;;;;;;;5.70;2.10;;;;;;;8.71;88.40;100304.34;7386321;19;20349;-68
2021/12/05 13:39:40;;;;;;;2.90;1.02;;;;;;;8.71;88.17;100301.72;7387989;19;20093;-71
2021/12/05 13:42:13;;;;;;;5.55;2.60;;;;;;;8.72;88.36;100311.25;7389642;19;20085;-71
2021/12/05 13:44:58;;;;;;;8.23;2.47;;;;;;;8.72;88.09;100308.63;7387599;19;20066;-68
2021/12/05 13:47:31;;;;;;;3.38;1.30;;;;;;;8.72;87.98;100317.31;7387577;19;20006;-69
2021/12/05 13:50:18;;;;;;;86.50;5.07;;;;;;;8.73;88.20;100323.41;7390120;19;20029;-71
2021/12/05 13:52:49;;;;;;;30.98;6.95;;;;;;;8.75;89.88;100324.88;7386894;19;20511;-70
2021/12/05 13:55:31;;;;;;;8.02;4.25;;;;;;;8.78;91.00;100319.34;7387142;19;20018;-71
2021/12/05 13:58:04;;;;;;;9.18;3.90;;;;;;;8.81;91.88;100329.50;7388687;19;20009;-70
2021/12/05 14:00:40;;;;;;;26.60;5.90;;;;;;;8.81;92.06;100324.25;7386406;19;20723;-70
2021/12/05 14:03:07;;;;;;;8.63;2.45;;;;;;;8.79;91.32;100328.81;7388715;19;20013;-69
2021/12/05 14:05:35;;;;;;;5.47;2.60;;;;;;;8.77;90.93;100333.44;7386820;19;20122;-71
2021/12/05 14:08:16;;;;;;;5.63;3.00;;;;;;;8.74;89.92;100341.59;7392363;19;20007;-68
2021/12/05 14:10:44;;;;;;;3.97;2.60;;;;;;;8.74;89.60;100343.38;7394698;19;20479;-69
2021/12/05 14:13:13;;;;;;;5.03;1.70;;;;;;;8.71;88.95;100351.56;7395400;19;20014;-70
2021/12/05 14:15:40;;;;;;;10.02;2.92;;;;;;;8.72;87.93;100363.72;7395997;19;20011;-71
2021/12/05 14:18:28;;;;;;;4.60;2.05;;;;;;;8.73;88.82;100362.75;7397015;19;20382;-67
2021/12/05 14:21:09;;;;;;;3.65;1.55;;;;;;;8.74;89.16;100367.81;7394342;19;20006;-71
2021/12/05 14:23:36;;;;;;;4.60;1.58;;;;;;;8.72;89.05;100363.72;7394665;19;20011;-69
2021/12/05 14:26:20;;;;;;;3.47;1.98;;;;;;;8.69;89.58;100380.56;7395775;19;20042;-68
2021/12/05 14:28:59;;;;;;;5.88;1.73;;;;;;;8.68;89.76;100373.69;7393955;19;20010;-70
2021/12/05 14:31:32;;;;;;;7.32;2.88;;;;;;;8.70;90.06;100384.84;7396198;19;20038;-68
2021/12/05 14:34:00;;;;;;;5.80;1.50;;;;;;;8.72;90.35;100396.00;7391224;19;20363;-70
2021/12/05 14:36:32;;;;;;;3.75;1.30;;;;;;;8.74;90.48;100403.69;7392531;19;20015;-71
2021/12/05 14:39:07;;;;;;;3.45;1.30;;;;;;;8.75;90.27;100400.09;7392885;19;20014;-72
2021/12/05 14:41:35;;;;;;;4.25;1.33;;;;;;;8.75;90.23;100410.59;7392596;19;20003;-69
2021/12/05 14:44:02;;;;;;;6.28;1.35;;;;;;;8.77;90.13;100409.50;7389842;19;20027;-70
2021/12/05 14:46:30;;;;;;;4.75;1.33;;;;;;;8.80;89.38;100417.03;7393958;19;20002;-68
2021/12/05 14:51:33;;;;;;;4.40;1.20;;;;;;;8.81;89.83;100418.69;7392533;19;20018;-71
2021/12/05 14:54:01;;;;;;;4.65;2.60;;;;;;;8.82;89.42;100419.53;7390066;19;20010;-68
2021/12/05 14:56:33;;;;;;;2.03;0.70;;;;;;;8.81;89.29;100433.59;7393732;19;20006;-70
2021/12/05 14:59:05;;;;;;;4.50;0.77;;;;;;;8.79;89.50;100444.25;7396048;19;20020;-70
2021/12/05 15:01:33;;;;;;;2.00;1.17;;;;;;;8.76;89.75;100449.81;7391622;19;20006;-68
2021/12/05 15:04:02;;;;;;;5.20;0.70;;;;;;;8.81;89.55;100457.22;7391530;19;20017;-69
2021/12/05 15:06:35;;;;;;;2.83;0.60;;;;;;;8.82;89.53;100461.50;7393219;19;20070;-71
2021/12/05 15:09:06;;;;;;;2.20;0.70;;;;;;;8.82;89.48;100462.31;7396125;19;20022;-70
2021/12/05 15:11:34;;;;;;;2.00;0.52;;;;;;;8.82;89.27;100464.13;7395932;19;20020;-70
2021/12/05 15:14:06;;;;;;;2.53;0.55;;;;;;;8.83;89.38;100466.59;7390925;19;20164;-67
2021/12/05 15:16:49;;;;;;;6.47;1.48;;;;;;;8.83;89.36;100479.72;7392477;19;20013;-71
2021/12/05 15:19:25;;;;;;;4.38;1.42;;;;;;;8.82;89.20;100483.31;7389431;19;20388;-70
2021/12/05 15:21:53;;;;;;;4.43;0.70;;;;;;;8.87;88.73;100478.44;7389014;19;20033;-68
2021/12/05 15:24:30;;;;;;;4.38;0.60;;;;;;;8.88;88.33;100484.50;7389973;19;20007;-71
2021/12/05 15:27:20;;;;;;;3.25;0.52;;;;;;;8.91;89.94;100494.69;7390752;19;20752;-69
2021/12/05 15:29:56;;;;;;;1.20;0.50;;;;;;;8.95;88.83;100512.59;7390876;19;20094;-71
2021/12/05 15:32:29;;;;;;;4.55;2.10;;;;;;;8.94;89.09;100510.94;7391582;19;20011;-69
2021/12/05 15:35:11;;;;;;;2.28;0.95;;;;;;;8.95;89.67;100514.38;7391904;19;20015;-68
2021/12/05 15:37:58;;;;;;;4.67;1.23;;;;;;;8.93;89.20;100518.97;7392269;19;20014;-68
2021/12/05 15:40:27;;;;;;;6.93;0.68;;;;;;;8.93;89.32;100519.81;7394096;19;20017;-70
2021/12/05 15:43:05;;;;;;;3.75;1.05;;;;;;;8.96;89.31;100522.13;7393037;19;20050;-70
2021/12/05 15:45:34;;;;;;;5.20;0.80;;;;;;;8.95;88.29;100530.13;7390138;19;20494;-71
2021/12/05 15:48:01;;;;;;;3.05;0.60;;;;;;;8.97;88.21;100529.03;7391002;19;20011;-69
2021/12/05 15:50:31;;;;;;;2.88;1.15;;;;;;;8.98;88.28;100527.22;7390353;19;20026;-72
2021/12/05 15:53:04;;;;;;;5.32;0.60;;;;;;;9.00;87.82;100535.75;7390925;19;20042;-70
2021/12/05 15:55:36;;;;;;;2.80;0.60;;;;;;;9.01;87.10;100538.25;7390886;19;20069;-70
2021/12/05 15:58:23;;;;;;;3.78;0.52;;;;;;;9.00;87.18;100541.84;7390449;19;20014;-70
2021/12/05 16:01:02;;;;;;;5.40;1.17;;;;;;;9.01;87.86;100546.13;7394653;19;20336;-68
2021/12/05 16:03:49;;;;;;;6.13;2.30;;;;;;;8.99;87.41;100548.03;7391001;19;20011;-72
2021/12/05 16:06:32;;;;;;;7.15;0.70;;;;;;;8.97;86.74;100554.44;7390867;19;20499;-70
2021/12/05 16:09:13;;;;;;;7.55;0.73;;;;;;;8.93;86.84;100553.91;7392231;19;20030;-69
2021/12/05 16:11:49;;;;;;;1.63;0.30;;;;;;;8.92;86.08;100575.03;7394496;19;20014;-71
2021/12/05 16:14:44;;;;;;;2.08;0.45;;;;;;;8.91;85.60;100582.09;7388199;19;20074;-70
2021/12/05 16:17:26;;;;;;;3.10;0.30;;;;;;;8.88;85.23;100584.19;7390152;19;20046;-71
2021/12/05 16:20:14;;;;;;;2.50;0.60;;;;;;;8.87;85.93;100593.84;7387896;19;20070;-69
2021/12/05 16:25:44;;;;;;;2.88;0.43;;;;;;;8.89;85.39;100602.38;7389310;19;20006;-68
2021/12/05 16:28:13;;;;;;;2.47;0.50;;;;;;;8.89;85.92;100598.94;7390006;19;20006;-71
2021/12/05 16:30:45;;;;;;;4.45;0.40;;;;;;;8.88;86.11;100599.94;7391041;19;20014;-69
2021/12/05 16:33:15;;;;;;;1.23;0.40;;;;;;;8.91;85.71;100604.88;7390332;19;20003;-70
2021/12/05 16:35:53;;;;;;;1.98;0.63;;;;;;;8.88;85.84;100602.56;7389661;19;20333;-69
2021/12/05 16:38:24;;;;;;;3.63;0.35;;;;;;;8.92;86.00;100617.84;7390066;19;20397;-69
2021/12/05 16:41:00;;;;;;;6.20;0.40;;;;;;;8.93;86.15;100616.88;7391801;19;20471;-71
2021/12/05 16:43:28;;;;;;;4.20;0.43;;;;;;;8.94;85.37;100623.75;7394591;19;20010;-68
2021/12/05 16:46:05;;;;;;;4.78;0.50;;;;;;;8.94;85.91;100634.25;7391003;19;20007;-69
2021/12/05 16:48:39;;;;;;;5.15;0.85;;;;;;;8.93;85.45;100643.13;7390158;19;20007;-70
2021/12/05 16:51:35;;;;;;;6.32;0.57;;;;;;;8.93;85.56;100634.41;7391225;19;20082;-70
2021/12/05 16:54:15;;;;;;;5.32;1.63;;;;;;;8.91;86.04;100645.06;7390409;19;20038;-69
2021/12/05 16:56:49;;;;;;;4.78;0.50;;;;;;;8.92;85.91;100644.09;7388213;19;20018;-68
2021/12/05 16:59:21;;;;;;;3.00;0.50;;;;;;;8.92;85.73;100644.09;7388596;19;20010;-67
2021/12/05 17:02:24;;;;;;;3.85;0.50;;;;;;;8.93;85.50;100647.53;7390439;19;20027;-68
2021/12/05 17:05:02;;;;;;;4.85;0.88;;;;;;;8.94;85.16;100646.53;7389125;19;20010;-70
2021/12/05 17:07:43;;;;;;;8.05;1.08;;;;;;;8.95;85.28;100663.94;7390850;19;20300;-71
2021/12/05 17:10:30;;;;;;;4.60;0.30;;;;;;;8.93;85.02;100660.66;7389942;19;20082;-70
2021/12/05 17:13:15;;;;;;;2.47;0.40;;;;;;;8.93;84.82;100664.13;7392167;19;20025;-70
2021/12/05 17:15:52;;;;;;;2.92;0.40;;;;;;;8.91;84.83;100668.66;7386726;19;20014;-70
2021/12/05 17:18:31;;;;;;;1.63;0.30;;;;;;;8.93;85.28;100684.28;7390978;19;20037;-69
2021/12/05 17:21:13;;;;;;;2.85;0.38;;;;;;;8.90;84.95;100693.25;7388704;19;20067;-69
2021/12/05 17:23:45;;;;;;;2.63;0.47;;;;;;;8.89;85.30;100683.72;7388945;19;20035;-69
2021/12/05 17:26:19;;;;;;;5.25;0.50;;;;;;;8.91;85.64;100702.78;7391659;19;20038;-69
2021/12/05 17:28:51;;;;;;;5.82;0.40;;;;;;;8.93;84.32;100702.63;7389874;19;20017;-70
2021/12/05 17:31:28;;;;;;;6.00;0.60;;;;;;;8.93;84.34;100710.50;7366771;19;20342;-68
2021/12/05 17:34:03;;;;;;;2.22;0.30;;;;;;;8.94;84.50;100720.00;7376806;19;20019;-68
2021/12/05 17:36:37;;;;;;;3.50;0.50;;;;;;;8.95;83.31;100724.28;7387414;19;20084;-72
2021/12/05 17:39:26;;;;;;;2.50;0.30;;;;;;;8.93;84.40;100734.13;7389348;19;20038;-71
2021/12/05 17:41:57;;;;;;;4.22;0.35;;;;;;;8.95;84.44;100735.63;7392916;19;20083;-70
2021/12/05 17:44:24;;;;;;;3.70;0.40;;;;;;;8.98;83.91;100737.97;7395637;19;20130;-70
2021/12/05 17:46:57;;;;;;;2.47;0.50;;;;;;;8.99;84.56;100739.59;7395408;19;20013;-71
2021/12/05 17:49:27;;;;;;;2.63;0.50;;;;;;;8.98;84.58;100753.72;7392762;19;20007;-67
2021/12/05 17:51:58;;;;;;;4.90;0.60;;;;;;;8.98;84.31;100753.72;7396452;19;20043;-67
2021/12/05 17:54:33;;;;;;;6.80;0.50;;;;;;;8.99;84.75;100770.25;7394639;19;20016;-71
2021/12/05 17:57:07;;;;;;;4.13;0.60;;;;;;;8.94;85.19;100754.94;7397732;19;20015;-70
2021/12/05 18:04:57;;;;;;;7.25;0.63;;;;;;;8.94;85.58;100772.50;7397096;19;20340;-70
2021/12/05 18:07:26;;;;;;;2.95;0.57;;;;;;;8.95;85.35;100768.91;7396943;19;20023;-70
2021/12/05 18:09:54;;;;;;;4.68;1.30;;;;;;;8.92;85.15;100770.03;7395014;19;20300;-69
2021/12/05 18:12:31;;;;;;;3.83;0.40;;;;;;;8.91;84.67;100768.38;7394719;19;20618;-70